Time;durP1;ratioP1;P1;durP2;ratioP2;P2;SDS_P1;SDS_P2;PMS_P1;PMS_P2;Temp;Humidity;BMP_temperature;BMP_pressure;BME280_temperature;BME280_humidity;BME280_pressure;Samples;Min_cycle;Max_cycle;Signal;HPM_P1;HPM_P2
2022/10/31 00:00:59;;;;;;;11.40;4.65;;;12.90;99.90;;;11.84;100.00;101130.97;5070182;28;20029;-78
2022/10/31 00:03:26;;;;;;;13.13;4.90;;;12.90;99.90;;;11.80;100.00;101130.53;5068716;28;20024;-78
2022/10/31 00:05:52;;;;;;;10.10;5.15;;;12.90;99.90;;;11.78;100.00;101138.94;5068689;28;20036;-77
2022/10/31 00:08:18;;;;;;;12.60;5.50;;;12.90;99.90;;;11.75;100.00;101133.09;5068684;28;20447;-77
2022/10/31 00:10:45;;;;;;;11.10;5.22;;;12.90;99.90;;;11.80;100.00;101125.94;5066591;28;20032;-77
2022/10/31 00:13:13;;;;;;;12.80;5.28;;;12.90;99.90;;;11.75;100.00;101125.69;5066010;28;20739;-77
2022/10/31 00:15:40;;;;;;;10.00;5.75;;;12.90;99.90;;;11.70;100.00;101127.41;5067493;28;20059;-77
2022/10/31 00:18:08;;;;;;;11.23;5.20;;;12.90;99.90;;;11.68;100.00;101129.53;5067409;28;20033;-77
2022/10/31 00:20:35;;;;;;;10.32;4.90;;;12.80;99.90;;;11.67;100.00;101131.41;5067922;28;20032;-77
2022/10/31 00:23:03;;;;;;;10.63;4.78;;;12.80;99.90;;;11.70;100.00;101130.16;5068122;28;20028;-77
2022/10/31 00:25:34;;;;;;;11.93;5.38;;;12.80;99.90;;;11.72;100.00;101134.34;5067738;28;20476;-77
2022/10/31 00:28:00;;;;;;;11.43;5.32;;;12.90;99.90;;;11.80;100.00;101136.00;5067837;28;20381;-78
2022/10/31 00:30:25;;;;;;;9.57;4.93;;;12.90;99.90;;;11.86;100.00;101140.63;5067454;28;20086;-76
2022/10/31 00:32:51;;;;;;;12.07;5.40;;;13.00;99.90;;;11.96;100.00;101139.34;5067393;28;20039;-76
2022/10/31 00:35:17;;;;;;;12.05;5.38;;;13.10;99.90;;;12.03;100.00;101142.94;5067951;28;20039;-77
2022/10/31 00:37:44;;;;;;;12.23;5.13;;;13.10;99.90;;;11.98;100.00;101137.25;5071208;28;20025;-77
2022/10/31 00:40:10;;;;;;;11.93;4.97;;;13.20;99.90;;;11.93;100.00;101146.94;5071665;28;20110;-77
2022/10/31 00:42:36;;;;;;;11.77;5.05;;;13.10;99.90;;;11.93;100.00;101149.66;5071655;28;20036;-76
2022/10/31 00:45:02;;;;;;;12.32;5.88;;;13.10;99.90;;;11.89;100.00;101151.13;5076985;28;20495;-78
2022/10/31 00:47:28;;;;;;;10.45;5.57;;;13.00;99.90;;;11.97;100.00;101160.19;5052594;28;20036;-77
2022/10/31 00:49:54;;;;;;;12.45;6.88;;;13.10;99.90;;;11.93;100.00;101160.59;5060138;28;20485;-78
2022/10/31 00:52:20;;;;;;;13.25;7.40;;;13.00;99.90;;;12.00;100.00;101163.31;5061259;28;20036;-77
2022/10/31 00:54:45;;;;;;;14.60;7.63;;;13.10;99.90;;;12.14;100.00;101163.31;5079203;28;20031;-77
2022/10/31 00:57:11;;;;;;;19.85;9.68;;;13.20;99.90;;;12.22;100.00;101161.19;5067612;28;20044;-77
2022/10/31 00:59:37;;;;;;;24.90;9.98;;;13.30;99.90;;;12.45;100.00;101159.81;5056977;28;20106;-76
2022/10/31 01:02:03;;;;;;;19.92;9.68;;;13.50;99.90;;;12.46;100.00;101161.50;5062357;28;20028;-76
2022/10/31 01:04:28;;;;;;;19.60;11.20;;;13.50;99.90;;;12.38;100.00;101159.00;5076228;28;20036;-76
2022/10/31 01:06:56;;;;;;;16.88;10.38;;;13.50;99.90;;;12.47;100.00;101171.41;5070963;28;20044;-76
2022/10/31 01:09:23;;;;;;;21.98;11.45;;;13.50;99.90;;;12.51;100.00;101169.91;5070718;28;20032;-77
2022/10/31 01:11:49;;;;;;;18.63;10.77;;;13.60;99.90;;;12.53;100.00;101161.47;5057060;28;20544;-76
2022/10/31 01:14:15;;;;;;;22.63;11.75;;;13.60;99.90;;;12.52;100.00;101165.28;5081675;28;20409;-76
2022/10/31 01:16:40;;;;;;;24.83;12.25;;;13.60;99.90;;;12.54;100.00;101178.75;5063246;28;20025;-76
2022/10/31 01:19:06;;;;;;;23.20;12.63;;;13.70;99.90;;;12.61;100.00;101169.47;5077658;28;20416;-76
2022/10/31 01:21:32;;;;;;;23.65;12.27;;;13.70;99.90;;;12.71;100.00;101171.69;5075607;28;20037;-76
2022/10/31 01:23:59;;;;;;;24.30;12.45;;;13.80;99.90;;;12.72;100.00;101173.38;5075000;28;20043;-76
2022/10/31 01:26:30;;;;;;;27.48;13.00;;;13.90;99.90;;;12.78;100.00;101178.00;5076807;28;20025;-75
2022/10/31 01:29:04;;;;;;;25.65;12.63;;;13.90;99.90;;;12.73;100.00;101177.81;5053880;28;20161;-76
2022/10/31 01:31:37;;;;;;;25.50;13.35;;;13.90;99.90;;;12.72;100.00;101178.84;5059798;28;20480;-76
2022/10/31 01:34:03;;;;;;;28.92;15.02;;;13.90;99.90;;;12.70;100.00;101177.41;5076125;28;20051;-75
2022/10/31 01:36:36;;;;;;;30.25;14.70;;;13.90;99.90;;;12.71;100.00;101188.13;5079904;28;20495;-75
2022/10/31 01:39:07;;;;;;;33.10;16.00;;;13.90;99.90;;;12.71;100.00;101182.66;5065426;28;20126;-75
2022/10/31 01:41:38;;;;;;;25.05;14.45;;;13.90;99.90;;;12.70;100.00;101185.63;5080606;28;20392;-76
2022/10/31 01:44:23;;;;;;;31.67;16.70;;;13.90;99.90;;;12.74;100.00;101184.97;5070323;28;20068;-77
2022/10/31 01:47:02;;;;;;;31.92;16.30;;;13.90;99.90;;;12.74;100.00;101190.44;5070791;28;20040;-75
2022/10/31 01:49:50;;;;;;;31.60;16.40;;;13.90;99.90;;;12.76;100.00;101179.28;5074861;28;20050;-75
2022/10/31 01:52:32;;;;;;;31.70;16.27;;;13.90;99.90;;;12.81;100.00;101179.44;5071047;28;20041;-75
2022/10/31 01:55:06;;;;;;;33.42;16.95;;;14.00;99.90;;;12.80;100.00;101186.84;5063751;28;20031;-75
2022/10/31 01:57:35;;;;;;;31.00;17.90;;;13.90;99.90;;;12.80;100.00;101183.25;5070170;28;20131;-75
2022/10/31 02:00:08;;;;;;;36.42;18.33;;;13.90;99.90;;;12.78;100.00;101188.09;5070147;28;20429;-75
2022/10/31 02:02:41;;;;;;;36.00;19.08;;;13.90;99.90;;;12.71;100.00;101190.88;5070202;28;20060;-75
2022/10/31 02:05:15;;;;;;;40.78;21.30;;;13.90;99.90;;;12.81;100.00;101198.63;5061482;28;20031;-75
2022/10/31 02:08:07;;;;;;;42.13;20.95;;;13.90;99.90;;;12.74;100.00;101181.38;5069501;28;20032;-75
2022/10/31 02:10:36;;;;;;;41.80;21.90;;;13.90;99.90;;;12.79;100.00;101192.53;5073455;28;20055;-75
2022/10/31 02:13:07;;;;;;;41.88;21.17;;;13.90;99.90;;;12.75;100.00;101200.34;5055441;28;20021;-76
2022/10/31 02:15:39;;;;;;;43.78;21.65;;;13.90;99.90;;;12.76;100.00;101193.81;5068478;28;20476;-76
2022/10/31 02:18:07;;;;;;;41.72;22.65;;;13.90;99.90;;;12.73;100.00;101187.91;5067322;28;20024;-76
2022/10/31 02:20:46;;;;;;;;;;;13.80;99.90;;;12.71;100.00;101199.06;5070464;28;20068;-76
2022/10/31 02:23:45;;;;;;;43.65;21.80;;;13.80;99.90;;;12.66;100.00;101201.63;5069756;28;20007;-75
2022/10/31 02:26:49;;;;;;;49.05;22.98;;;13.80;99.90;;;12.69;100.00;101198.47;5052835;28;20902;-75
2022/10/31 02:29:24;;;;;;;47.15;23.92;;;13.80;99.90;;;12.74;100.00;101198.66;5076810;28;20044;-74
2022/10/31 02:32:13;;;;;;;43.33;22.95;;;13.80;99.90;;;12.70;100.00;101199.31;5071090;28;20028;-74
2022/10/31 02:35:44;;;;;;;46.23;24.00;;;13.80;99.90;;;12.63;100.00;101202.94;5075136;28;20652;-74
2022/10/31 02:38:52;;;;;;;44.97;24.35;;;13.80;99.90;;;12.54;100.00;101195.16;5008796;28;21048;-76
2022/10/31 02:42:00;;;;;;;48.67;24.73;;;13.70;99.90;;;12.46;100.00;101199.81;5073383;28;20099;-76
2022/10/31 02:45:00;;;;;;;47.92;24.63;;;13.60;99.90;;;12.33;100.00;101195.25;5066295;28;20039;-77
2022/10/31 02:47:33;;;;;;;48.95;24.05;;;13.50;99.90;;;12.22;100.00;101202.22;5066245;28;20126;-76
2022/10/31 02:50:19;;;;;;;51.03;26.23;;;13.40;99.90;;;12.13;100.00;101206.22;5057639;28;20063;-76
2022/10/31 02:52:51;;;;;;;46.88;24.17;;;13.30;99.90;;;11.99;100.00;101204.56;5069540;28;20408;-76
2022/10/31 02:55:26;;;;;;;53.83;25.80;;;13.20;99.90;;;11.99;100.00;101207.28;5066323;28;20120;-76
2022/10/31 02:58:12;;;;;;;52.15;25.48;;;13.10;99.90;;;11.93;100.00;101204.34;5072675;28;20282;-76
2022/10/31 03:01:02;;;;;;;51.22;26.13;;;13.10;99.90;;;11.89;100.00;101202.25;5063257;28;20028;-76
2022/10/31 03:03:49;;;;;;;51.20;25.75;;;13.10;99.90;;;11.88;100.00;101198.66;5069042;28;20042;-75
2022/10/31 03:06:45;;;;;;;58.17;28.60;;;13.00;99.90;;;11.92;100.00;101199.09;5067295;28;20036;-76
2022/10/31 03:09:26;;;;;;;52.70;25.83;;;13.00;99.90;;;11.84;100.00;101199.31;5062280;28;20033;-76
2022/10/31 03:12:04;;;;;;;55.63;27.27;;;12.90;99.90;;;11.71;100.00;101198.25;5068271;28;20016;-76
2022/10/31 03:14:58;;;;;;;60.88;27.95;;;12.90;99.90;;;11.79;100.00;101199.94;5064853;28;20086;-76
2022/10/31 03:18:00;;;;;;;58.17;27.42;;;12.90;99.90;;;11.60;100.00;101197.00;5065693;28;20047;-75
2022/10/31 03:20:40;;;;;;;55.60;26.70;;;12.80;99.90;;;11.52;100.00;101192.56;5056595;28;20059;-77
2022/10/31 03:23:13;;;;;;;48.75;25.02;;;12.70;99.90;;;11.34;100.00;101189.63;5054905;28;20089;-76
2022/10/31 03:25:41;;;;;;;54.17;25.85;;;12.50;99.90;;;11.25;100.00;101191.72;5068703;28;20028;-77
2022/10/31 03:28:12;;;;;;;56.20;25.63;;;12.50;99.90;;;11.17;100.00;101190.03;5064124;28;20024;-76
2022/10/31 03:30:44;;;;;;;58.28;26.85;;;12.40;99.90;;;11.11;100.00;101196.31;5052352;28;20051;-76
2022/10/31 03:33:24;;;;;;;62.17;27.80;;;12.30;99.90;;;11.06;100.00;101196.94;5068482;28;20109;-76
2022/10/31 03:35:59;;;;;;;54.42;27.13;;;12.30;99.90;;;11.05;100.00;101206.19;5063168;28;20618;-75
2022/10/31 03:38:26;;;;;;;57.70;26.40;;;12.30;99.90;;;11.03;100.00;101208.28;5056664;28;20691;-76
2022/10/31 03:40:58;;;;;;;54.30;26.95;;;12.30;99.90;;;11.01;100.00;101206.81;5063786;28;20492;-76
2022/10/31 03:43:32;;;;;;;63.80;27.50;;;12.30;99.90;;;11.05;100.00;101206.19;5051269;28;20043;-76
2022/10/31 03:45:58;;;;;;;56.90;26.42;;;12.30;99.90;;;11.00;100.00;101207.84;5068230;28;20024;-77
2022/10/31 03:48:26;;;;;;;67.32;29.10;;;12.30;99.90;;;10.97;100.00;101211.84;5070547;28;20101;-76
2022/10/31 03:51:16;;;;;;;63.08;28.02;;;12.20;99.90;;;10.89;100.00;101210.13;5051875;28;20195;-76
2022/10/31 03:54:09;;;;;;;64.60;28.55;;;12.10;99.90;;;10.92;100.00;101211.63;5063101;28;20496;-76
2022/10/31 03:57:03;;;;;;;59.97;26.67;;;12.20;99.90;;;10.81;100.00;101213.03;5050152;28;20082;-77
2022/10/31 03:59:51;;;;;;;52.03;25.27;;;12.10;99.90;;;10.68;100.00;101208.38;5065735;28;20570;-76
2022/10/31 04:02:23;;;;;;;62.05;27.85;;;12.00;99.90;;;10.62;100.00;101201.00;5050174;28;20056;-76
2022/10/31 04:04:50;;;;;;;62.70;26.45;;;11.90;99.90;;;10.58;100.00;101216.09;5067906;28;20040;-76
2022/10/31 04:07:21;;;;;;;59.43;27.27;;;11.90;99.90;;;10.48;100.00;101211.84;5065611;28;20040;-76
2022/10/31 04:09:53;;;;;;;58.13;25.67;;;11.80;99.90;;;10.31;100.00;101218.66;5062219;28;20070;-76
2022/10/31 04:12:25;;;;;;;65.68;27.20;;;11.60;99.90;;;10.22;100.00;101218.00;5072090;28;20025;-77
2022/10/31 04:15:07;;;;;;;57.78;26.98;;;11.50;99.90;;;10.21;100.00;101225.31;5064181;28;20020;-77
2022/10/31 04:17:40;;;;;;;74.40;29.48;;;11.50;99.90;;;10.27;100.00;101231.00;5054737;28;20021;-76
2022/10/31 04:20:07;;;;;;;67.25;27.58;;;11.50;99.90;;;10.27;100.00;101225.53;5073026;28;20479;-76
2022/10/31 04:22:33;;;;;;;66.13;27.88;;;11.50;99.90;;;10.24;100.00;101231.41;5052069;28;20480;-76
2022/10/31 04:24:59;;;;;;;65.13;28.10;;;11.50;99.90;;;10.15;100.00;101223.38;5067986;28;20031;-76
2022/10/31 04:27:26;;;;;;;71.45;26.92;;;11.50;99.90;;;10.12;100.00;101231.13;5067632;28;20024;-76
2022/10/31 04:29:51;;;;;;;69.10;28.10;;;11.40;99.90;;;10.07;100.00;101240.75;5067858;28;20020;-76
2022/10/31 04:32:18;;;;;;;76.55;29.40;;;11.40;99.90;;;9.99;100.00;101240.91;5073265;28;20029;-76
2022/10/31 04:34:43;;;;;;;70.55;28.85;;;11.30;99.90;;;10.02;100.00;101247.81;5068205;28;20472;-75
2022/10/31 04:37:10;;;;;;;79.07;31.25;;;11.30;99.90;;;10.00;100.00;101245.31;5064277;28;20032;-75
2022/10/31 04:39:36;;;;;;;80.18;30.50;;;11.30;99.90;;;10.11;100.00;101246.66;5052947;28;20097;-76
2022/10/31 04:42:31;;;;;;;76.45;30.38;;;11.40;99.90;;;10.16;100.00;101243.31;5071528;28;20102;-75
2022/10/31 04:44:59;;;;;;;88.15;32.00;;;11.50;99.90;;;10.16;100.00;101244.16;5066865;28;20111;-76
2022/10/31 04:47:26;;;;;;;86.15;31.63;;;11.50;99.90;;;10.13;100.00;101243.72;5053740;28;20720;-76
2022/10/31 04:49:52;;;;;;;79.72;31.40;;;11.40;99.90;;;10.12;100.00;101242.03;5056799;28;20028;-76
2022/10/31 04:52:19;;;;;;;80.18;30.15;;;11.40;99.90;;;10.11;100.00;101238.47;5067913;28;20119;-76
2022/10/31 04:54:45;;;;;;;88.35;30.42;;;11.40;99.90;;;10.14;100.00;101235.34;5062769;28;20023;-76
2022/10/31 04:57:41;;;;;;;84.07;32.47;;;11.40;99.90;;;10.21;100.00;101236.22;5067545;28;20075;-77
2022/10/31 05:00:09;;;;;;;82.75;31.05;;;11.50;99.90;;;10.17;100.00;101237.66;5059890;28;20042;-76
2022/10/31 05:02:54;;;;;;;75.00;29.10;;;11.50;99.90;;;10.05;100.00;101231.91;5068059;28;20056;-76
2022/10/31 05:05:25;;;;;;;71.00;27.20;;;11.40;99.90;;;9.92;100.00;101224.50;5067138;28;20056;-77
2022/10/31 05:07:52;;;;;;;70.13;26.77;;;11.20;99.90;;;9.85;100.00;101231.78;5059815;28;20024;-77
2022/10/31 05:10:25;;;;;;;62.28;25.55;;;11.10;99.90;;;9.79;100.00;101225.22;5063577;28;20111;-77
2022/10/31 05:12:56;;;;;;;73.57;27.58;;;11.10;99.90;;;9.83;100.00;101228.41;5055558;28;20752;-77
2022/10/31 05:15:42;;;;;;;69.18;27.50;;;11.20;99.90;;;9.63;100.00;101215.47;5066842;28;20028;-77
2022/10/31 05:18:28;;;;;;;44.60;21.48;;;11.00;99.90;;;9.31;100.00;101212.25;5067080;28;20068;-77
2022/10/31 05:20:53;;;;;;;37.83;18.90;;;10.70;99.90;;;9.10;100.00;101217.69;5067411;28;20574;-77
2022/10/31 05:23:26;;;;;;;40.00;19.02;;;10.50;99.90;;;8.88;100.00;101214.94;5062254;28;20111;-77
2022/10/31 05:25:53;;;;;;;36.92;20.50;;;10.30;99.90;;;8.70;100.00;101213.44;5068253;28;20028;-77
2022/10/31 05:28:18;;;;;;;46.88;21.88;;;10.10;99.90;;;8.59;100.00;101213.94;5053147;28;20029;-77
2022/10/31 05:30:44;;;;;;;56.88;24.02;;;9.90;99.90;;;8.82;100.00;101218.41;5069604;28;20417;-77
2022/10/31 05:33:14;;;;;;;60.42;23.70;;;10.10;99.90;;;8.95;100.00;101215.00;5052963;28;20531;-77
2022/10/31 05:36:06;;;;;;;61.38;23.90;;;10.20;99.90;;;9.02;100.00;101221.34;5070724;28;20032;-77
2022/10/31 05:38:52;;;;;;;54.28;21.98;;;10.40;99.90;;;8.94;100.00;101218.78;5071080;28;20104;-77
2022/10/31 05:41:24;;;;;;;55.80;23.85;;;10.30;99.90;;;8.97;100.00;101215.66;5074989;28;20134;-77
2022/10/31 05:43:51;;;;;;;61.40;24.05;;;10.30;99.90;;;8.96;100.00;101216.69;5060897;28;20032;-77
2022/10/31 05:46:20;;;;;;;117.03;24.48;;;10.30;99.90;;;8.98;100.00;101218.16;5070593;28;20040;-77
2022/10/31 05:49:05;;;;;;;51.13;19.67;;;10.30;99.90;;;8.98;100.00;101228.22;5070051;28;20039;-77
2022/10/31 05:51:49;;;;;;;94.18;22.25;;;10.30;99.90;;;8.93;100.00;101220.63;5077921;28;20352;-77
2022/10/31 05:54:15;;;;;;;60.17;21.45;;;10.30;99.90;;;8.90;100.00;101226.47;5069644;28;20036;-77
2022/10/31 05:56:42;;;;;;;107.80;21.95;;;10.20;99.90;;;8.86;100.00;101225.16;5072657;28;20052;-77
2022/10/31 05:59:08;;;;;;;65.57;24.02;;;10.20;99.90;;;8.82;100.00;101221.16;5080582;28;21214;-77
2022/10/31 06:01:34;;;;;;;64.28;22.70;;;10.20;99.90;;;8.84;100.00;101238.94;5083094;28;20028;-76
2022/10/31 06:04:04;;;;;;;57.45;23.25;;;10.20;99.90;;;8.76;100.00;101225.47;5079628;28;20549;-77
2022/10/31 06:06:31;;;;;;;81.20;25.57;;;10.20;99.90;;;8.75;100.00;101231.94;5075173;28;20032;-76
2022/10/31 06:08:57;;;;;;;56.60;24.33;;;10.10;99.90;;;8.76;100.00;101231.75;5076677;28;20293;-76
2022/10/31 06:11:24;;;;;;;55.47;23.75;;;10.10;99.90;;;8.84;100.00;101236.22;5055451;28;20083;-76
2022/10/31 06:14:03;;;;;;;63.55;25.02;;;10.20;99.90;;;8.85;100.00;101234.38;5075480;28;20032;-76
2022/10/31 06:16:36;;;;;;;49.33;22.02;;;10.20;99.90;;;8.83;100.00;101236.44;5079602;28;20040;-77
2022/10/31 06:19:22;;;;;;;49.85;21.55;;;10.20;99.90;;;8.68;100.00;101237.28;5071079;28;20045;-76
2022/10/31 06:21:47;;;;;;;45.28;19.90;;;10.10;99.90;;;8.56;100.00;101247.81;5072871;28;20089;-76
2022/10/31 06:24:14;;;;;;;48.30;19.38;;;10.00;99.90;;;8.59;100.00;101238.44;5055404;28;20033;-77
2022/10/31 06:26:52;;;;;;;29.83;17.10;;;10.00;99.90;;;8.54;100.00;101232.72;5074166;28;20130;-76
2022/10/31 06:29:18;;;;;;;30.00;16.98;;;9.90;99.90;;;8.46;100.00;101231.75;5065741;28;20046;-76
2022/10/31 06:32:04;;;;;;;85.55;22.45;;;9.80;99.90;;;8.33;100.00;101239.72;5071083;28;20036;-76
2022/10/31 06:34:35;;;;;;;103.97;22.65;;;9.80;99.90;;;8.27;100.00;101237.75;5057284;28;20024;-78
2022/10/31 06:37:05;;;;;;;56.95;21.55;;;9.70;99.90;;;8.25;100.00;101239.81;5061711;28;20028;-77
2022/10/31 06:39:31;;;;;;;59.95;22.88;;;9.70;99.90;;;8.25;100.00;101247.97;5063982;28;20044;-77
2022/10/31 06:41:57;;;;;;;63.90;23.75;;;9.60;99.90;;;8.26;100.00;101244.22;5075743;28;20032;-77
2022/10/31 06:44:25;;;;;;;67.00;24.33;;;9.60;99.90;;;8.34;100.00;101244.13;5075685;28;20265;-76
2022/10/31 06:46:54;;;;;;;65.70;25.48;;;9.70;99.90;;;8.46;100.00;101247.22;5074270;28;20086;-78
2022/10/31 06:49:37;;;;;;;68.75;25.80;;;9.80;99.90;;;8.50;100.00;101237.69;5063300;28;20455;-76
2022/10/31 06:52:08;;;;;;;71.57;25.48;;;9.90;99.90;;;8.64;100.00;101249.59;5055955;28;20020;-81
2022/10/31 06:54:34;;;;;;;74.25;27.02;;;10.00;99.90;;;8.73;100.00;101248.44;5069788;28;20037;-76
2022/10/31 06:57:00;;;;;;;81.30;25.90;;;10.10;99.90;;;8.83;100.00;101242.69;5068995;28;20037;-75
2022/10/31 06:59:27;;;;;;;73.50;25.07;;;10.20;99.90;;;8.86;100.00;101247.75;5067720;28;20055;-76
2022/10/31 07:02:11;;;;;;;72.32;27.33;;;10.20;99.90;;;8.89;100.00;101252.00;5075044;28;20048;-77
2022/10/31 07:04:39;;;;;;;77.85;26.88;;;10.20;99.90;;;8.90;100.00;101259.13;5063124;28;20054;-78
2022/10/31 07:07:05;;;;;;;66.80;25.42;;;10.30;99.90;;;8.92;100.00;101268.78;5060084;28;20491;-77
2022/10/31 07:09:31;;;;;;;70.72;25.92;;;10.30;99.90;;;8.92;100.00;101271.50;5059441;28;20024;-76
2022/10/31 07:12:01;;;;;;;67.72;24.63;;;10.30;99.90;;;8.95;100.00;101270.25;5073244;28;20017;-76
2022/10/31 07:14:29;;;;;;;59.75;23.23;;;10.30;99.90;;;9.00;100.00;101283.31;5051002;28;20675;-78
2022/10/31 07:16:55;;;;;;;80.43;27.08;;;10.30;99.90;;;9.00;100.00;101270.53;5069366;28;20024;-77
2022/10/31 07:19:31;;;;;;;64.25;23.48;;;10.40;99.90;;;9.04;100.00;101263.69;5068930;28;20024;-76
2022/10/31 07:21:57;;;;;;;69.82;25.48;;;10.40;99.90;;;9.09;100.00;101273.16;5071285;28;20039;-79
2022/10/31 07:24:26;;;;;;;73.53;25.45;;;10.40;99.90;;;9.13;100.00;101274.47;5076718;28;20024;-77
2022/10/31 07:27:10;;;;;;;62.03;23.63;;;10.50;99.90;;;9.18;100.00;101280.16;5070234;28;20390;-77
2022/10/31 07:29:36;;;;;;;78.68;27.40;;;10.50;99.90;;;9.23;100.00;101280.44;5064081;28;20254;-77
2022/10/31 07:32:04;;;;;;;80.95;26.42;;;10.60;99.90;;;9.28;100.00;101271.69;5069400;28;20024;-79
2022/10/31 07:34:31;;;;;;;76.40;27.55;;;10.60;99.90;;;9.35;100.00;101278.03;5054350;28;20021;-80
2022/10/31 07:37:29;;;;;;;83.32;29.00;;;10.70;99.90;;;9.44;100.00;101279.63;5039621;28;20052;-79
2022/10/31 07:39:56;;;;;;;74.72;27.52;;;10.80;99.90;;;9.49;100.00;101284.47;5087000;28;20144;-79
2022/10/31 07:42:22;;;;;;;74.78;26.35;;;10.80;99.90;;;9.56;100.00;101279.94;5097698;28;20119;-82
2022/10/31 07:44:49;;;;;;;77.82;27.88;;;10.90;99.90;;;9.62;100.00;101275.59;5092327;28;20024;-81
2022/10/31 07:47:48;;;;;;;71.68;27.80;;;11.00;99.90;;;9.69;100.00;101264.75;5089367;28;20059;-81
2022/10/31 07:50:34;;;;;;;68.47;25.63;;;11.10;99.90;;;9.83;100.00;101274.75;5078441;28;20039;-81
2022/10/31 07:53:09;;;;;;;73.15;27.17;;;11.20;99.90;;;9.89;100.00;101278.53;5082706;28;20036;-84
2022/10/31 07:55:38;;;;;;;69.78;28.02;;;11.20;99.90;;;9.84;100.00;101281.88;5082371;28;20037;-81
2022/10/31 07:58:25;;;;;;;68.63;26.75;;;11.20;99.90;;;9.94;100.00;101281.50;5068493;28;20032;-79
2022/10/31 08:00:51;;;;;;;70.38;25.50;;;11.30;99.90;;;10.00;100.00;101288.06;5080437;28;20020;-82
2022/10/31 08:03:28;;;;;;;69.07;26.00;;;11.30;99.90;;;10.08;100.00;101285.22;5065597;28;20532;-81
2022/10/31 08:06:09;;;;;;;67.93;27.42;;;11.40;99.90;;;10.11;100.00;101292.13;5073654;28;20040;-78
2022/10/31 08:08:57;;;;;;;64.40;26.08;;;11.40;99.90;;;10.19;100.00;101284.66;5046601;28;20047;-78
2022/10/31 08:11:23;;;;;;;62.88;25.67;;;11.50;99.90;;;10.34;100.00;101289.16;5067900;28;20024;-77
2022/10/31 08:13:49;;;;;;;65.57;27.27;;;11.70;99.90;;;10.56;100.00;101280.94;5065145;28;20035;-79
2022/10/31 08:16:15;;;;;;;66.90;28.73;;;11.80;99.90;;;10.73;100.00;101279.56;5056917;28;20053;-78
2022/10/31 08:18:55;;;;;;;64.68;29.23;;;12.00;99.90;;;11.02;100.00;101272.13;5069621;28;20120;-80
2022/10/31 08:21:22;;;;;;;67.35;29.55;;;12.20;99.90;;;11.31;100.00;101274.72;5066478;28;20556;-80
2022/10/31 08:23:48;;;;;;;70.90;31.27;;;12.40;99.90;;;11.56;100.00;101283.19;5066991;28;20032;-79
2022/10/31 08:26:15;;;;;;;66.47;30.73;;;12.70;99.90;;;11.69;100.00;101287.81;5050483;28;20040;-80
2022/10/31 08:28:42;;;;;;;66.07;29.27;;;12.80;99.90;;;11.86;100.00;101282.78;5054974;28;20698;-79
2022/10/31 08:31:09;;;;;;;74.05;32.95;;;13.00;99.90;;;11.90;100.00;101280.47;5069626;28;20396;-79
2022/10/31 08:33:38;;;;;;;66.03;30.02;;;13.10;99.90;;;11.89;100.00;101282.34;5066925;28;20032;-77
2022/10/31 08:36:36;;;;;;;71.25;29.33;;;13.10;99.90;;;11.93;100.00;101283.66;5069356;28;20043;-77
2022/10/31 08:39:14;;;;;;;57.20;28.95;;;13.00;99.90;;;12.07;100.00;101289.97;5073014;28;20056;-78
2022/10/31 08:41:40;;;;;;;52.70;26.45;;;13.10;99.90;;;12.22;100.00;101297.09;5051205;28;20682;-79
2022/10/31 08:44:10;;;;;;;56.30;27.13;;;13.20;99.90;;;12.27;100.00;101299.22;5063672;28;20032;-79
2022/10/31 08:46:36;;;;;;;52.40;26.65;;;13.30;99.90;;;12.49;100.00;101297.91;5052836;28;20033;-78
2022/10/31 08:49:02;;;;;;;50.83;26.38;;;13.50;99.90;;;12.78;100.00;101311.31;5067383;28;20090;-78
2022/10/31 08:51:28;;;;;;;49.10;25.23;;;13.80;99.90;;;13.00;100.00;101309.13;5062160;28;20394;-78
2022/10/31 08:53:55;;;;;;;41.85;22.92;;;14.10;99.90;;;13.20;100.00;101309.03;5069925;28;20124;-79
2022/10/31 08:56:44;;;;;;;43.42;23.42;;;14.30;99.90;;;13.46;100.00;101303.66;5072606;28;20161;-78
2022/10/31 08:59:37;;;;;;;41.03;22.73;;;14.60;99.90;;;13.78;100.00;101303.66;5068114;28;20077;-79
2022/10/31 09:02:21;;;;;;;38.17;21.42;;;14.90;99.90;;;14.08;100.00;101313.97;5060896;28;20038;-77
2022/10/31 09:04:49;;;;;;;34.70;19.17;;;15.20;99.90;;;14.32;100.00;101315.03;5061052;28;20035;-79
2022/10/31 09:07:16;;;;;;;32.78;18.48;;;15.40;99.90;;;14.48;100.00;101307.28;5054199;28;20538;-79
2022/10/31 09:09:42;;;;;;;35.20;19.08;;;15.60;99.90;;;14.64;100.00;101314.09;5065817;28;20184;-78
2022/10/31 09:12:08;;;;;;;37.30;18.05;;;15.80;99.90;;;14.77;100.00;101313.13;5072267;28;20803;-79
2022/10/31 09:14:53;;;;;;;33.17;18.17;;;15.90;99.90;;;14.94;100.00;101308.69;5071758;28;20043;-79
2022/10/31 09:17:30;;;;;;;35.28;17.63;;;16.20;99.90;;;15.20;100.00;101297.59;5071536;28;20178;-77
2022/10/31 09:20:22;;;;;;;29.98;17.25;;;16.40;99.90;;;15.55;100.00;101302.38;5053438;28;20491;-77
2022/10/31 09:23:03;;;;;;;33.75;18.05;;;16.80;99.90;;;15.82;100.00;101312.97;5071500;28;20016;-78
2022/10/31 09:25:30;;;;;;;29.38;16.80;;;17.10;99.90;;;16.12;100.00;101312.09;5058664;28;20391;-78
2022/10/31 09:28:32;;;;;;;27.42;14.50;;;17.50;99.90;;;16.61;100.00;101327.53;5038236;28;20037;-78
2022/10/31 09:31:03;;;;;;;25.42;13.38;;;18.00;99.90;;;17.09;95.01;101331.91;5057533;28;20515;-78
2022/10/31 09:33:47;;;;;;;25.02;14.20;;;18.70;99.90;;;17.48;89.97;101334.06;5070859;28;20056;-77
2022/10/31 09:36:44;;;;;;;24.35;13.65;;;19.50;99.90;;;17.82;84.54;101331.34;5064358;28;20052;-78
2022/10/31 09:39:20;;;;;;;25.10;14.55;;;20.10;99.90;;;18.16;83.35;101325.03;5064944;28;20032;-81
2022/10/31 09:42:42;;;;;;;24.77;13.15;;;20.60;99.90;;;18.63;78.18;101332.09;5067192;28;20020;-78
2022/10/31 09:45:31;;;;;;;27.77;13.43;;;20.90;99.90;;;18.67;79.79;101327.72;5043528;28;20052;-78
2022/10/31 09:48:12;;;;;;;26.92;14.70;;;20.70;99.90;;;18.93;81.98;101327.25;5082966;28;20409;-78
2022/10/31 09:51:33;;;;;;;29.30;14.45;;;20.60;99.90;;;18.79;78.54;101322.06;5066112;28;20058;-79
2022/10/31 09:54:29;;;;;;;23.60;13.70;;;20.30;99.90;;;18.97;78.62;101328.41;5064673;28;20066;-77
2022/10/31 09:57:00;;;;;;;29.10;14.82;;;20.20;99.90;;;18.86;79.31;101323.84;5069550;28;20045;-78
2022/10/31 09:59:40;;;;;;;29.50;15.00;;;20.10;99.90;;;18.98;77.32;101330.09;5061497;28;20020;-80
2022/10/31 10:02:26;;;;;;;26.98;14.35;;;19.90;99.90;;;19.15;77.30;101324.50;5069076;28;20024;-83
2022/10/31 10:05:06;;;;;;;26.75;14.35;;;20.10;99.90;;;19.39;77.05;101324.22;5070535;28;20024;-79
2022/10/31 10:07:58;;;;;;;24.75;13.52;;;20.20;99.90;;;19.75;77.23;101320.97;5067574;28;20089;-78
2022/10/31 10:11:23;;;;;;;30.77;14.95;;;20.50;99.90;;;19.03;75.79;101323.81;5053730;28;20035;-77
2022/10/31 10:14:12;;;;;;;24.90;13.55;;;20.50;99.90;;;18.86;80.51;101313.59;5057659;28;20484;-78
2022/10/31 10:17:15;;;;;;;24.88;14.52;;;20.10;99.90;;;19.31;81.03;101322.75;5069906;28;20035;-78
2022/10/31 10:20:04;;;;;;;25.42;13.57;;;20.20;99.90;;;19.48;78.15;101322.63;5069843;28;20046;-78
2022/10/31 10:23:21;;;;;;;23.33;14.02;;;20.60;99.90;;;20.24;71.03;101320.88;5070306;28;20485;-76
2022/10/31 10:26:01;;;;;;;23.60;12.48;;;20.90;99.90;;;20.75;67.24;101319.50;5069092;28;21056;-80
2022/10/31 10:28:38;;;;;;;24.50;12.32;;;21.40;99.90;;;21.07;68.47;101320.50;5071308;28;20036;-77
2022/10/31 10:31:15;;;;;;;22.60;12.88;;;21.80;99.90;;;21.35;66.41;101318.38;5069490;28;20090;-76